Ko Samui, Thailand
Current Conditions -  °F | °C
As of 4:00 PM on Wednesday 28 Jan 2015 (Local Time) from VTSM Reporting Station
Broken Clouds Broken Clouds  
Wind Chill: 86°   Ceiling: 30000
Heat Index: 93°   Visibility: 6mi
Dew Point: 73°   Wind: 12mph
Humidity: 66%   Direction: 160°SSE
Pressure: 29.83"   Gusts: NA
Location:  9.5°N, 100.01°E
Report Text: VTSM 280900Z 16010KT 9000 FEW020 BKN300 30/23 Q1010 A2985
Loading
Personal Weather Stations






























Interactive Weather Map New forecast layout! Learn more

10-Day Weather Forecast

Advertisements
Track Severe Weather on mobile